Time;durP1;ratioP1;P1;durP2;ratioP2;P2;SDS_P1;SDS_P2;PMS_P1;PMS_P2;Temp;Humidity;BMP_temperature;BMP_pressure;BME280_temperature;BME280_humidity;BME280_pressure;Samples;Min_cycle;Max_cycle;Signal;HPM_P1;HPM_P2
2022/03/19 00:01:01;;;;;;;15.50;10.38;;;;;;;1.57;49.80;102068.34;5106301;28;20057;-61
2022/03/19 00:03:27;;;;;;;16.65;9.85;;;;;;;1.54;50.53;102061.41;5106500;28;20028;-61
2022/03/19 00:05:53;;;;;;;15.25;7.85;;;;;;;1.57;50.54;102065.78;5106454;28;20036;-60
2022/03/19 00:08:19;;;;;;;12.75;8.88;;;;;;;1.52;50.15;102060.44;5106225;28;20220;-61
2022/03/19 00:10:45;;;;;;;11.98;7.25;;;;;;;1.51;50.23;102053.56;5106208;28;20134;-61
2022/03/19 00:13:12;;;;;;;13.02;8.27;;;;;;;1.49;50.84;102053.50;5106329;28;20030;-61
2022/03/19 00:15:39;;;;;;;14.18;8.45;;;;;;;1.49;51.22;102047.50;5106100;28;20020;-61
2022/03/19 00:18:05;;;;;;;14.10;7.40;;;;;;;1.44;50.30;102047.28;5104915;28;20023;-60
2022/03/19 00:20:31;;;;;;;18.92;9.20;;;;;;;1.44;50.72;102057.47;5104937;28;20024;-60
2022/03/19 00:22:57;;;;;;;15.63;9.20;;;;;;;1.43;51.10;102054.84;5106088;28;20141;-60
2022/03/19 00:25:23;;;;;;;16.33;8.23;;;;;;;1.37;51.68;102057.94;5106014;28;20120;-60
2022/03/19 00:27:49;;;;;;;12.13;8.50;;;;;;;1.35;51.75;102062.06;5105861;28;20016;-60
2022/03/19 00:30:14;;;;;;;15.60;8.82;;;;;;;1.37;51.15;102058.81;5105705;28;20026;-61
2022/03/19 00:32:40;;;;;;;14.18;8.95;;;;;;;1.35;52.00;102059.53;5105577;28;20042;-60
2022/03/19 00:35:07;;;;;;;10.30;6.32;;;;;;;1.25;52.16;102053.03;5104985;28;20028;-60
2022/03/19 00:37:46;;;;;;;12.70;6.90;;;;;;;0.95;51.20;101996.09;5104621;28;20076;-61
2022/03/19 00:40:13;;;;;;;17.58;7.03;;;;;;;1.28;51.74;102053.19;5104582;28;20035;-59
2022/03/19 00:42:39;;;;;;;14.52;7.00;;;;;;;1.19;52.37;102061.22;5104546;28;20020;-60
2022/03/19 00:45:06;;;;;;;12.45;6.45;;;;;;;1.22;51.59;102059.66;5105598;28;20040;-60
2022/03/19 00:47:31;;;;;;;11.20;6.72;;;;;;;1.13;52.29;102057.47;5105751;28;20095;-60
2022/03/19 00:49:57;;;;;;;9.30;6.00;;;;;;;1.18;52.07;102061.13;5105433;28;20021;-60
2022/03/19 00:52:22;;;;;;;11.93;7.32;;;;;;;1.17;52.68;102065.38;5105435;28;20031;-59
2022/03/19 00:54:48;;;;;;;12.07;7.00;;;;;;;1.16;52.83;102061.06;5104286;28;20047;-59
2022/03/19 00:57:13;;;;;;;11.52;6.32;;;;;;;1.10;52.75;102060.72;5105365;28;20031;-60
2022/03/19 00:59:39;;;;;;;11.10;6.45;;;;;;;1.14;52.36;102060.09;5105089;28;20050;-60
2022/03/19 01:02:05;;;;;;;12.98;6.70;;;;;;;1.10;51.37;102062.38;5104238;28;20245;-60
2022/03/19 01:04:31;;;;;;;9.73;6.28;;;;;;;1.12;52.06;102058.25;5105020;28;20339;-60
2022/03/19 01:06:56;;;;;;;7.90;5.45;;;;;;;1.15;51.55;102064.41;5105316;28;20038;-60
2022/03/19 01:09:22;;;;;;;10.80;6.93;;;;;;;1.14;51.39;102059.22;5105082;28;20035;-59
2022/03/19 01:11:47;;;;;;;10.23;6.07;;;;;;;1.18;50.87;102068.78;5103938;28;20241;-60
2022/03/19 01:14:13;;;;;;;12.32;6.80;;;;;;;1.22;51.10;102060.53;5104953;28;20325;-60
2022/03/19 01:16:38;;;;;;;11.10;5.47;;;;;;;1.22;50.92;102069.88;5104926;28;20082;-60
2022/03/19 01:19:04;;;;;;;13.30;6.43;;;;;;;1.15;50.03;102064.41;5104981;28;20051;-61
2022/03/19 01:21:30;;;;;;;8.93;5.78;;;;;;;1.21;50.15;102066.41;5103813;28;20068;-60
2022/03/19 01:23:55;;;;;;;9.38;6.20;;;;;;;1.18;49.50;102074.81;5104767;28;20221;-60
2022/03/19 01:26:21;;;;;;;9.75;5.63;;;;;;;1.12;49.56;102066.78;5120797;28;20023;-61
2022/03/19 01:28:46;;;;;;;8.90;5.63;;;;;;;1.15;50.59;102077.16;5104446;28;20046;-61
2022/03/19 01:31:12;;;;;;;9.88;6.43;;;;;;;1.18;50.50;102079.00;5104930;28;20178;-62
2022/03/19 01:33:38;;;;;;;9.50;5.93;;;;;;;1.14;50.86;102066.88;5104700;28;20062;-61
2022/03/19 01:36:04;;;;;;;9.10;5.97;;;;;;;1.19;50.92;102083.31;5104601;28;20079;-61
2022/03/19 01:38:30;;;;;;;11.65;6.15;;;;;;;1.14;50.56;102083.06;5104770;28;20047;-61
2022/03/19 01:40:55;;;;;;;10.13;6.10;;;;;;;1.12;51.41;102077.00;5103296;28;20058;-61
2022/03/19 01:43:21;;;;;;;10.93;6.25;;;;;;;1.14;50.71;102074.53;5104510;28;20027;-61
2022/03/19 01:45:48;;;;;;;9.48;5.40;;;;;;;1.11;50.56;102085.47;5104487;28;20032;-61
2022/03/19 01:48:13;;;;;;;10.07;6.70;;;;;;;1.12;50.39;102086.31;5104373;28;20039;-61
2022/03/19 01:50:39;;;;;;;9.02;6.10;;;;;;;1.10;50.78;102087.91;5104426;28;20069;-61
2022/03/19 01:53:05;;;;;;;10.82;6.43;;;;;;;1.11;50.89;102093.13;5103240;28;20232;-60
2022/03/19 01:55:32;;;;;;;8.02;5.45;;;;;;;1.05;50.99;102084.22;5104270;28;20336;-60
2022/03/19 01:57:58;;;;;;;14.30;6.07;;;;;;;1.07;50.76;102091.19;5104171;28;20209;-61
2022/03/19 02:00:24;;;;;;;11.85;5.90;;;;;;;1.08;50.45;102090.38;5089934;28;20031;-61
2022/03/19 02:02:51;;;;;;;8.73;5.25;;;;;;;1.01;50.34;102094.25;5083908;28;20032;-61
2022/03/19 02:05:19;;;;;;;12.18;6.60;;;;;;;0.60;50.36;102035.78;5083865;28;20020;-62
2022/03/19 02:07:46;;;;;;;10.45;6.00;;;;;;;1.00;50.10;102102.69;5085797;28;20341;-62
2022/03/19 02:10:14;;;;;;;13.15;7.07;;;;;;;0.96;50.22;102099.91;5083797;28;20025;-60
2022/03/19 02:12:40;;;;;;;10.73;6.03;;;;;;;0.98;50.44;102095.75;5083460;28;20052;-61
2022/03/19 02:15:06;;;;;;;8.43;5.85;;;;;;;1.02;50.61;102097.69;5083631;28;20145;-61
2022/03/19 02:17:32;;;;;;;8.65;5.97;;;;;;;1.02;50.24;102090.03;5082374;28;20038;-61
2022/03/19 02:19:58;;;;;;;8.05;5.43;;;;;;;1.01;51.29;102096.81;5083111;28;20055;-61
2022/03/19 02:22:26;;;;;;;8.93;5.70;;;;;;;1.03;50.05;102100.31;5082827;28;20052;-61
2022/03/19 02:27:38;;;;;;;9.45;5.60;;;;;;;1.00;51.72;102100.16;5082195;28;20024;-61
2022/03/19 02:30:06;;;;;;;8.82;5.85;;;;;;;0.71;52.17;102054.25;5098886;28;20020;-61
2022/03/19 02:32:32;;;;;;;15.57;6.30;;;;;;;0.95;52.42;102095.56;5086475;28;20200;-61
2022/03/19 02:34:58;;;;;;;13.43;5.97;;;;;;;0.93;52.37;102094.63;5092342;28;20031;-60
2022/03/19 02:37:23;;;;;;;13.25;6.18;;;;;;;0.85;53.23;102092.47;5100569;28;20020;-60
2022/03/19 02:39:49;;;;;;;8.90;6.40;;;;;;;0.80;52.69;102093.03;5101455;28;20044;-61
2022/03/19 02:42:17;;;;;;;9.35;6.30;;;;;;;0.80;52.11;102098.16;5102540;28;20036;-62
2022/03/19 02:44:43;;;;;;;11.38;6.07;;;;;;;0.78;52.08;102090.38;5084451;28;20023;-62
2022/03/19 02:47:09;;;;;;;8.18;5.72;;;;;;;0.73;52.30;102090.91;5102504;28;20024;-61
2022/03/19 02:49:35;;;;;;;10.07;5.88;;;;;;;0.70;52.77;102091.63;5102459;28;20055;-60
2022/03/19 02:52:01;;;;;;;10.35;5.82;;;;;;;0.76;52.36;102098.75;5100857;28;20051;-60
2022/03/19 02:54:29;;;;;;;11.93;6.35;;;;;;;0.76;52.40;102111.50;5102474;28;20075;-59
2022/03/19 02:56:55;;;;;;;9.20;5.70;;;;;;;0.71;52.90;102101.00;5100826;28;20024;-61
2022/03/19 02:59:29;;;;;;;9.60;6.32;;;;;;;0.67;53.67;102105.06;5102341;28;20023;-60
2022/03/19 03:02:00;;;;;;;8.85;5.75;;;;;;;0.44;53.23;102080.78;5100723;28;20028;-61
2022/03/19 03:04:26;;;;;;;10.20;6.70;;;;;;;0.58;54.30;102111.31;5102166;28;20016;-61
2022/03/19 03:06:53;;;;;;;12.32;6.43;;;;;;;0.50;54.40;102114.28;5102307;28;20024;-61
2022/03/19 03:09:21;;;;;;;10.60;6.88;;;;;;;0.10;54.47;102035.47;5102118;28;20012;-61
2022/03/19 03:11:47;;;;;;;10.13;6.03;;;;;;;0.47;54.37;102097.91;5101989;28;20333;-61
2022/03/19 03:14:13;;;;;;;12.25;6.68;;;;;;;0.45;54.40;102102.91;5100913;28;20016;-59
2022/03/19 03:16:40;;;;;;;9.43;6.32;;;;;;;0.42;54.39;102101.88;5102375;28;20016;-60
2022/03/19 03:19:08;;;;;;;9.98;6.07;;;;;;;0.02;53.20;102034.13;5101986;28;20027;-61
2022/03/19 03:21:35;;;;;;;8.57;6.15;;;;;;;0.36;55.06;102104.94;5101792;28;20031;-60
2022/03/19 03:24:02;;;;;;;11.60;5.85;;;;;;;0.36;54.55;102099.84;5102669;28;20252;-61
2022/03/19 03:26:28;;;;;;;11.15;6.63;;;;;;;0.41;55.08;102102.66;5105393;28;20217;-60
2022/03/19 03:28:54;;;;;;;10.43;6.35;;;;;;;0.36;55.30;102110.03;5107141;28;20056;-60
2022/03/19 03:31:20;;;;;;;12.25;6.43;;;;;;;0.35;55.44;102103.16;5105900;28;20302;-60
2022/03/19 03:33:46;;;;;;;14.88;7.10;;;;;;;0.30;54.99;102105.47;5106937;28;20020;-61
2022/03/19 03:36:12;;;;;;;11.25;6.32;;;;;;;0.25;54.09;102111.94;5106908;28;20047;-61
2022/03/19 03:38:38;;;;;;;10.93;6.60;;;;;;;0.26;55.62;102113.69;5106772;28;20016;-61
2022/03/19 03:41:03;;;;;;;19.65;10.05;;;;;;;0.23;54.93;102115.16;5105568;28;20040;-62
2022/03/19 03:43:29;;;;;;;16.90;9.48;;;;;;;0.19;55.35;102106.47;5106972;28;20024;-61
2022/03/19 03:45:55;;;;;;;12.00;7.10;;;;;;;0.28;53.94;102116.34;5106552;28;20321;-61
2022/03/19 03:48:21;;;;;;;10.98;6.55;;;;;;;0.30;55.46;102114.75;5106724;28;20340;-60
2022/03/19 03:50:51;;;;;;;15.02;7.30;;;;;;;-0.10;57.33;102057.22;5106660;28;20030;-62
2022/03/19 03:53:18;;;;;;;11.27;7.50;;;;;;;0.27;56.92;102125.66;5106425;28;20016;-61
2022/03/19 03:55:44;;;;;;;11.70;6.47;;;;;;;0.29;55.27;102125.75;5106509;28;20027;-61
2022/03/19 03:58:11;;;;;;;15.65;7.10;;;;;;;0.31;56.40;102135.25;5106392;28;20344;-62
2022/03/19 04:00:36;;;;;;;13.32;7.45;;;;;;;0.32;56.38;102128.47;5106276;28;20032;-62
2022/03/19 04:03:03;;;;;;;13.63;7.22;;;;;;;0.33;54.88;102131.13;5106442;28;20398;-61
2022/03/19 04:05:30;;;;;;;12.77;7.32;;;;;;;0.23;55.21;102113.53;5106415;28;20083;-61
2022/03/19 04:07:55;;;;;;;12.65;7.70;;;;;;;0.34;56.21;102127.78;5105899;28;20096;-62
2022/03/19 04:10:21;;;;;;;11.93;7.15;;;;;;;0.33;56.17;102131.13;5106250;28;20032;-62
2022/03/19 04:12:47;;;;;;;12.02;6.65;;;;;;;0.37;56.51;102133.84;5106412;28;20103;-61
2022/03/19 04:15:12;;;;;;;15.50;8.35;;;;;;;0.37;56.71;102127.09;5106139;28;20032;-61
2022/03/19 04:17:40;;;;;;;17.17;8.45;;;;;;;0.30;56.80;102115.66;5106026;28;20312;-61
2022/03/19 04:20:07;;;;;;;9.48;6.60;;;;;;;0.33;54.86;102120.06;5106086;28;20031;-63
2022/03/19 04:22:38;;;;;;;11.32;7.32;;;;;;;0.15;54.26;102095.22;5105960;28;20107;-61
2022/03/19 04:25:08;;;;;;;13.80;7.77;;;;;;;0.44;54.48;102135.97;5105987;28;20061;-61
2022/03/19 04:27:34;;;;;;;14.20;7.47;;;;;;;0.41;54.81;102136.66;5105177;28;20027;-60
2022/03/19 04:29:59;;;;;;;11.75;6.47;;;;;;;0.38;55.24;102131.38;5105728;28;20074;-62
2022/03/19 04:32:25;;;;;;;14.45;7.03;;;;;;;0.45;54.23;102136.06;5105751;28;20044;-61
2022/03/19 04:34:51;;;;;;;12.27;6.90;;;;;;;0.42;53.65;102140.09;5105679;28;20438;-62
2022/03/19 04:37:16;;;;;;;11.35;6.70;;;;;;;0.45;53.83;102140.28;5104404;28;20217;-62
2022/03/19 04:39:42;;;;;;;12.52;6.50;;;;;;;0.47;53.56;102141.25;5105848;28;20320;-61
2022/03/19 04:42:07;;;;;;;9.60;6.30;;;;;;;0.57;53.91;102147.78;5105357;28;20335;-61
2022/03/19 04:44:33;;;;;;;12.52;5.78;;;;;;;0.60;53.87;102137.75;5105648;28;20027;-61
2022/03/19 04:46:58;;;;;;;11.02;6.30;;;;;;;0.62;53.90;102143.84;5105392;28;20060;-61
2022/03/19 04:49:24;;;;;;;8.88;5.63;;;;;;;0.65;52.75;102136.38;5104010;28;20336;-61
2022/03/19 04:51:50;;;;;;;11.13;6.10;;;;;;;0.54;53.21;102142.50;5105306;28;20433;-61
2022/03/19 04:54:16;;;;;;;11.10;6.03;;;;;;;0.65;53.02;102149.13;5105231;28;20361;-61
2022/03/19 04:56:42;;;;;;;13.57;6.15;;;;;;;0.68;54.51;102140.00;5105215;28;20031;-60
2022/03/19 04:59:11;;;;;;;20.48;7.07;;;;;;;0.78;53.93;102150.72;5105287;28;20027;-62
2022/03/19 05:01:38;;;;;;;14.70;6.90;;;;;;;0.85;54.18;102150.28;5105184;28;20020;-61
2022/03/19 05:04:03;;;;;;;14.02;6.40;;;;;;;0.91;52.97;102147.22;5105132;28;20093;-61
2022/03/19 05:06:29;;;;;;;10.15;6.10;;;;;;;0.90;52.24;102148.00;5105084;28;20279;-60
2022/03/19 05:11:40;;;;;;;10.43;6.25;;;;;;;1.01;52.35;102152.94;5104454;28;20343;-62
2022/03/19 05:14:06;;;;;;;10.50;6.25;;;;;;;1.03;52.98;102153.91;5104836;28;20023;-61
2022/03/19 05:16:32;;;;;;;14.15;6.47;;;;;;;1.10;52.31;102155.13;5104908;28;20466;-62
2022/03/19 05:18:58;;;;;;;18.92;6.30;;;;;;;1.22;52.56;102166.84;5104459;28;20121;-61
2022/03/19 05:21:23;;;;;;;15.93;6.97;;;;;;;1.26;51.70;102166.22;5104743;28;20099;-62
2022/03/19 05:23:49;;;;;;;12.15;6.40;;;;;;;1.31;52.16;102173.34;5104778;28;20023;-62
2022/03/19 05:26:15;;;;;;;14.60;6.28;;;;;;;1.39;51.41;102176.31;5104716;28;20032;-63
2022/03/19 05:28:40;;;;;;;16.67;6.43;;;;;;;1.42;51.70;102181.59;5086591;28;20092;-60
2022/03/19 05:31:08;;;;;;;14.35;6.32;;;;;;;1.05;50.99;102120.81;5104578;28;20032;-61
2022/03/19 05:36:18;;;;;;;16.73;5.20;;;;;;;1.50;49.25;102167.59;5104545;28;20032;-62
2022/03/19 05:38:44;;;;;;;15.80;5.70;;;;;;;1.70;49.56;102173.81;5104471;28;20077;-62
2022/03/19 05:41:10;;;;;;;19.70;6.63;;;;;;;1.74;49.90;102172.31;5103334;28;20020;-61
2022/03/19 05:43:36;;;;;;;8.30;4.80;;;;;;;1.80;48.57;102182.00;5103789;28;20016;-61
2022/03/19 05:46:02;;;;;;;10.80;4.88;;;;;;;1.84;48.28;102164.38;5103547;28;20036;-62
2022/03/19 05:48:28;;;;;;;11.52;5.53;;;;;;;1.96;48.10;102173.50;5103290;28;20024;-62
2022/03/19 05:50:54;;;;;;;8.48;4.30;;;;;;;2.03;47.58;102179.00;5102823;28;20245;-61
2022/03/19 05:53:19;;;;;;;9.32;4.47;;;;;;;1.99;47.30;102177.06;5103678;28;20217;-61
2022/03/19 05:55:45;;;;;;;13.00;5.13;;;;;;;2.07;47.60;102174.94;5102469;28;20043;-61
2022/03/19 05:58:11;;;;;;;13.05;6.05;;;;;;;2.02;47.99;102166.16;5103476;28;20071;-61
2022/03/19 06:00:36;;;;;;;14.02;5.35;;;;;;;2.20;47.41;102171.38;5103801;28;20035;-62
2022/03/19 06:03:02;;;;;;;14.13;5.47;;;;;;;2.26;47.68;102175.94;5104041;28;20309;-61
2022/03/19 06:05:27;;;;;;;7.07;4.53;;;;;;;2.31;45.96;102174.47;5103995;28;20024;-61
2022/03/19 06:07:54;;;;;;;6.78;5.03;;;;;;;2.40;46.09;102169.88;5102422;28;20027;-61
2022/03/19 06:10:20;;;;;;;15.00;5.38;;;;;;;2.48;46.36;102166.03;5103915;28;20069;-60
2022/03/19 06:12:46;;;;;;;7.75;4.57;;;;;;;2.57;44.83;102170.75;5102503;28;20272;-62
2022/03/19 06:15:12;;;;;;;15.52;5.50;;;;;;;2.73;45.60;102168.16;5102427;28;20031;-60
2022/03/19 06:17:38;;;;;;;10.63;5.28;;;;;;;3.36;43.80;102172.97;5098062;28;20328;-60
2022/03/19 06:20:04;;;;;;;19.30;5.25;;;;;;;3.99;42.78;102162.25;5100387;28;20028;-62
2022/03/19 06:22:29;;;;;;;7.88;4.82;;;;;;;4.62;41.45;102165.03;5098642;28;20050;-62
2022/03/19 06:24:55;;;;;;;7.47;4.60;;;;;;;5.17;40.09;102165.59;5101294;28;20032;-61
2022/03/19 06:27:22;;;;;;;9.02;5.05;;;;;;;5.83;39.73;102162.22;5101596;28;20042;-61
2022/03/19 06:29:48;;;;;;;11.10;5.05;;;;;;;6.51;38.54;102165.63;5101240;28;20039;-62
2022/03/19 06:32:16;;;;;;;8.27;4.97;;;;;;;7.46;36.17;102161.91;5101368;28;20031;-61
2022/03/19 06:34:42;;;;;;;19.40;5.90;;;;;;;8.40;35.84;102168.97;5103474;28;20024;-62
2022/03/19 06:37:20;;;;;;;12.98;4.93;;;;;;;8.89;34.61;102165.16;5103137;28;20047;-62
2022/03/19 06:39:53;;;;;;;18.45;6.50;;;;;;;8.86;34.44;102171.97;5100118;28;20077;-62
2022/03/19 06:42:19;;;;;;;18.17;5.47;;;;;;;9.17;31.85;102157.22;5098997;28;20035;-61
2022/03/19 06:44:44;;;;;;;11.15;5.35;;;;;;;9.05;33.68;102161.25;5099261;28;20031;-62
2022/03/19 06:47:10;;;;;;;12.88;5.43;;;;;;;8.97;35.02;102158.47;5099762;28;20081;-61
2022/03/19 06:49:36;;;;;;;16.40;5.30;;;;;;;9.13;32.94;102156.25;5101317;28;20051;-62
2022/03/19 06:52:01;;;;;;;9.00;5.20;;;;;;;9.47;32.26;102155.34;5102890;28;20374;-61
2022/03/19 06:54:27;;;;;;;9.60;5.00;;;;;;;9.48;32.34;102158.84;5099978;28;20031;-61
2022/03/19 06:56:53;;;;;;;9.30;5.15;;;;;;;9.74;32.77;102150.78;5099459;28;20032;-61
2022/03/19 06:59:19;;;;;;;10.40;5.40;;;;;;;10.06;31.32;102159.25;5099229;28;20054;-62
2022/03/19 07:01:44;;;;;;;10.45;4.82;;;;;;;10.40;31.14;102156.50;5103535;28;20201;-63
2022/03/19 07:04:10;;;;;;;13.65;4.97;;;;;;;10.57;31.08;102164.59;5103832;28;20024;-62
2022/03/19 07:06:35;;;;;;;9.85;5.18;;;;;;;11.20;30.36;102153.59;5103743;28;20036;-61
2022/03/19 07:09:01;;;;;;;13.98;5.63;;;;;;;11.61;30.52;102167.19;5105560;28;20028;-62
2022/03/19 07:11:27;;;;;;;14.77;5.93;;;;;;;11.62;29.48;102168.94;5107453;28;20305;-62
2022/03/19 07:13:52;;;;;;;16.10;5.70;;;;;;;11.90;29.10;102175.38;5106071;28;20024;-62
2022/03/19 07:16:18;;;;;;;13.30;6.03;;;;;;;12.29;28.30;102168.97;5123113;28;20031;-64
2022/03/19 07:18:43;;;;;;;15.77;5.45;;;;;;;12.54;28.15;102177.03;5107202;28;20028;-63
2022/03/19 07:21:10;;;;;;;11.48;5.50;;;;;;;12.94;28.64;102170.50;5107295;28;20217;-62
2022/03/19 07:23:36;;;;;;;15.90;6.78;;;;;;;13.37;27.17;102179.56;5105806;28;20016;-63
2022/03/19 07:26:02;;;;;;;12.18;6.47;;;;;;;13.78;26.88;102169.41;5106483;28;20031;-62
2022/03/19 07:28:28;;;;;;;13.98;6.40;;;;;;;13.82;26.82;102165.06;5106886;28;20039;-62
2022/03/19 07:30:54;;;;;;;17.70;7.18;;;;;;;13.50;27.78;102172.72;5106483;28;20328;-62
2022/03/19 07:33:20;;;;;;;11.75;6.57;;;;;;;13.77;26.92;102164.19;5106541;28;20270;-63
2022/03/19 07:35:45;;;;;;;12.18;5.80;;;;;;;13.40;26.85;102177.00;5106280;28;20031;-62
2022/03/19 07:38:11;;;;;;;15.18;6.70;;;;;;;13.85;27.10;102172.91;5105283;28;20028;-62
2022/03/19 07:43:23;;;;;;;11.07;6.22;;;;;;;13.46;27.81;102170.06;5105952;28;20031;-62
2022/03/19 07:45:50;;;;;;;13.68;6.32;;;;;;;13.01;26.66;102180.97;5106462;28;20154;-62
2022/03/19 07:48:15;;;;;;;12.27;5.82;;;;;;;13.41;26.35;102170.91;5103572;28;20062;-62
2022/03/19 07:50:41;;;;;;;17.63;6.53;;;;;;;13.43;26.17;102174.41;5104724;28;20095;-61
2022/03/19 07:53:08;;;;;;;13.77;6.43;;;;;;;13.61;26.44;102166.72;5104937;28;20043;-62
2022/03/19 07:55:34;;;;;;;10.30;4.95;;;;;;;13.44;26.99;102158.78;5104491;28;20307;-62
2022/03/19 07:58:00;;;;;;;13.07;5.85;;;;;;;13.63;27.23;102172.78;5105231;28;20305;-62
2022/03/19 08:00:26;;;;;;;15.65;5.50;;;;;;;13.70;26.65;102171.09;5105965;28;20042;-62
2022/03/19 08:02:52;;;;;;;13.00;5.57;;;;;;;13.94;26.98;102169.50;5105704;28;20023;-62
2022/03/19 08:05:17;;;;;;;17.50;5.80;;;;;;;13.76;26.05;102178.94;5105393;28;20383;-61
2022/03/19 08:07:43;;;;;;;14.27;5.35;;;;;;;13.85;26.94;102165.09;5105234;28;20056;-63
2022/03/19 08:10:10;;;;;;;14.13;4.95;;;;;;;13.26;27.90;102141.28;5104475;28;20050;-62
2022/03/19 08:12:38;;;;;;;13.10;5.35;;;;;;;13.17;28.29;102164.63;5105355;28;20040;-61
2022/03/19 08:15:06;;;;;;;13.25;5.32;;;;;;;13.19;28.15;102160.31;5104455;28;20095;-62
2022/03/19 08:17:32;;;;;;;10.52;4.70;;;;;;;12.81;27.50;102168.63;5105412;28;20117;-61
2022/03/19 08:19:59;;;;;;;13.15;4.85;;;;;;;12.97;28.40;102169.66;5105531;28;20028;-61
2022/03/19 08:22:25;;;;;;;10.15;5.03;;;;;;;12.98;28.66;102160.13;5105796;28;20284;-61
2022/03/19 08:24:52;;;;;;;8.35;4.50;;;;;;;13.05;27.20;102167.13;5105756;28;20032;-62
2022/03/19 08:27:18;;;;;;;7.72;3.78;;;;;;;13.21;26.63;102158.59;5106059;28;20028;-62
2022/03/19 08:29:44;;;;;;;8.35;4.35;;;;;;;12.84;26.50;102166.09;5105707;28;20027;-61
2022/03/19 08:32:10;;;;;;;8.07;3.83;;;;;;;13.32;27.14;102157.81;5105762;28;20024;-61
2022/03/19 08:34:37;;;;;;;6.03;4.05;;;;;;;12.20;27.03;102166.25;5087980;28;20253;-62
2022/03/19 08:37:03;;;;;;;6.55;4.05;;;;;;;12.69;27.47;102160.72;5085460;28;20084;-60
2022/03/19 08:42:13;;;;;;;9.77;5.07;;;;;;;12.79;28.37;102165.16;5085471;28;20047;-61
2022/03/19 08:44:38;;;;;;;11.93;4.85;;;;;;;13.09;27.35;102140.28;5085449;28;20305;-62
2022/03/19 08:47:04;;;;;;;6.97;5.00;;;;;;;13.29;27.30;102156.91;5085308;28;20029;-62
2022/03/19 08:49:30;;;;;;;8.52;4.93;;;;;;;12.69;26.14;102163.34;5085222;28;20042;-60
2022/03/19 08:51:56;;;;;;;7.22;4.30;;;;;;;12.44;27.20;102163.06;5085099;28;20017;-61
2022/03/19 08:54:22;;;;;;;10.65;4.93;;;;;;;11.28;28.13;102124.31;5104067;28;20019;-62
2022/03/19 08:56:50;;;;;;;10.75;5.22;;;;;;;12.09;27.39;102111.59;5105510;28;20076;-62
2022/03/19 08:59:17;;;;;;;8.98;5.13;;;;;;;13.07;27.39;102175.84;5105247;28;20032;-61
2022/03/19 09:01:44;;;;;;;11.00;5.30;;;;;;;13.22;28.62;102139.50;5105117;28;20210;-63
2022/03/19 09:04:11;;;;;;;17.45;6.32;;;;;;;13.09;27.68;102174.09;5104283;28;20020;-64
2022/03/19 09:06:38;;;;;;;11.07;5.22;;;;;;;13.51;28.09;102159.72;5105314;28;20012;-61
2022/03/19 09:09:04;;;;;;;10.02;5.18;;;;;;;13.40;27.59;102153.56;5105126;28;20027;-61
2022/03/19 09:11:32;;;;;;;9.52;5.03;;;;;;;13.68;26.96;102148.50;5105012;28;20040;-63
2022/03/19 09:13:57;;;;;;;8.88;4.95;;;;;;;13.34;27.38;102137.84;5105138;28;20030;-61
2022/03/19 09:16:26;;;;;;;9.15;4.53;;;;;;;13.02;27.57;102170.56;5105004;28;20020;-60
2022/03/19 09:18:53;;;;;;;13.32;4.38;;;;;;;13.95;28.48;102164.28;5105075;28;20055;-63
2022/03/19 09:21:19;;;;;;;9.82;4.38;;;;;;;13.85;25.24;102170.31;5105122;28;20313;-63
2022/03/19 09:23:45;;;;;;;6.22;4.00;;;;;;;13.02;26.42;102175.75;5104289;28;20107;-63
2022/03/19 09:26:12;;;;;;;10.38;4.50;;;;;;;12.57;26.97;102145.88;5120798;28;20024;-64
2022/03/19 09:28:38;;;;;;;6.78;4.40;;;;;;;11.37;28.08;102164.25;5120821;28;20043;-62
2022/03/19 09:31:03;;;;;;;8.75;4.20;;;;;;;12.10;28.36;102173.06;5103470;28;20245;-64
2022/03/19 09:33:29;;;;;;;7.97;3.90;;;;;;;10.97;28.81;102179.13;5104543;28;20043;-62
2022/03/19 09:35:55;;;;;;;9.95;4.38;;;;;;;11.45;29.42;102172.13;5104509;28;20252;-63
2022/03/19 09:38:20;;;;;;;9.30;4.97;;;;;;;11.55;28.49;102179.19;5104739;28;20028;-61
2022/03/19 09:40:46;;;;;;;8.95;4.07;;;;;;;11.47;29.42;102177.34;5104392;28;20032;-61
2022/03/19 09:43:12;;;;;;;7.07;3.60;;;;;;;10.81;28.78;102172.78;5104439;28;20091;-61
2022/03/19 09:45:38;;;;;;;5.45;3.72;;;;;;;9.84;30.54;102179.47;5120301;28;20190;-62
2022/03/19 09:48:05;;;;;;;7.50;3.80;;;;;;;10.24;30.58;102170.81;5104327;28;20091;-60
2022/03/19 09:50:31;;;;;;;5.85;4.10;;;;;;;10.22;30.38;102172.50;5104125;28;20054;-62
2022/03/19 09:52:57;;;;;;;6.15;3.63;;;;;;;9.94;31.09;102174.50;5102988;28;20352;-61
2022/03/19 09:55:27;;;;;;;5.35;3.67;;;;;;;9.63;30.95;102177.31;5084601;28;20077;-61
2022/03/19 09:57:56;;;;;;;6.28;3.97;;;;;;;9.80;31.80;102184.56;5103214;28;20026;-61
2022/03/19 10:00:22;;;;;;;8.10;4.15;;;;;;;10.10;31.85;102180.88;5102560;28;20103;-61
2022/03/19 10:02:55;;;;;;;8.45;4.82;;;;;;;9.85;31.99;102190.72;5103771;28;20024;-62
2022/03/19 10:08:41;;;;;;;18.10;10.48;;;;;;;10.16;31.68;102181.91;5080262;28;20035;-61
2022/03/19 10:11:12;;;;;;;8.68;4.88;;;;;;;9.94;31.08;102148.63;5103890;28;20099;-61
2022/03/19 10:13:44;;;;;;;6.85;4.32;;;;;;;10.04;31.25;102185.94;5103581;28;20028;-62
2022/03/19 10:16:17;;;;;;;6.30;4.05;;;;;;;9.97;30.60;102180.63;5103873;28;20028;-61
2022/03/19 10:18:43;;;;;;;6.43;4.25;;;;;;;10.21;31.54;102183.72;5103822;28;20024;-61
2022/03/19 10:21:16;;;;;;;7.90;3.90;;;;;;;10.04;31.59;102185.94;5103821;28;20016;-61
2022/03/19 10:23:42;;;;;;;8.48;3.80;;;;;;;10.05;31.91;102173.03;5103781;28;20024;-61
2022/03/19 10:26:29;;;;;;;8.43;4.25;;;;;;;9.63;31.76;102195.41;5103535;28;20329;-61
2022/03/19 10:28:59;;;;;;;11.60;4.97;;;;;;;10.07;32.55;102191.19;5103144;28;20131;-61
2022/03/19 10:31:39;;;;;;;8.82;5.00;;;;;;;10.04;32.00;102186.81;5102461;28;20019;-62
2022/03/19 10:34:07;;;;;;;16.50;10.77;;;;;;;10.19;32.46;102192.31;5103627;28;20336;-62
2022/03/19 10:36:36;;;;;;;12.98;9.38;;;;;;;10.30;32.36;102196.84;5103650;28;20352;-61
2022/03/19 10:39:10;;;;;;;13.82;8.02;;;;;;;10.21;32.22;102199.25;5103604;28;20024;-61
2022/03/19 10:41:36;;;;;;;7.20;3.92;;;;;;;10.09;30.66;102192.97;5103776;28;20024;-61
2022/03/19 10:44:13;;;;;;;7.35;3.95;;;;;;;9.96;30.38;102185.75;5102299;28;20363;-60
2022/03/19 10:46:42;;;;;;;4.18;3.40;;;;;;;9.95;30.94;102181.44;5103684;28;20048;-61
2022/03/19 10:49:12;;;;;;;6.80;3.60;;;;;;;9.95;30.61;102174.53;5103332;28;20418;-61
2022/03/19 10:51:40;;;;;;;5.45;3.83;;;;;;;10.05;30.21;102173.03;5103572;28;20047;-61
2022/03/19 10:54:06;;;;;;;7.82;3.97;;;;;;;10.15;30.41;102179.28;5085361;28;20029;-62
2022/03/19 10:56:32;;;;;;;5.95;3.75;;;;;;;9.94;31.42;102165.03;5083200;28;20090;-61
2022/03/19 10:58:57;;;;;;;6.10;3.65;;;;;;;9.97;31.12;102170.25;5083060;28;20062;-61
2022/03/19 11:01:24;;;;;;;8.68;4.03;;;;;;;9.88;30.70;102180.44;5082972;28;20032;-61
2022/03/19 11:03:50;;;;;;;6.80;4.43;;;;;;;9.87;30.29;102170.06;5082821;28;20024;-61
2022/03/19 11:06:20;;;;;;;8.98;4.78;;;;;;;9.89;30.63;102166.66;5083111;28;20020;-60
2022/03/19 11:08:47;;;;;;;7.40;3.75;;;;;;;9.78;29.87;102166.41;5095756;28;20133;-61
2022/03/19 11:11:18;;;;;;;6.78;4.05;;;;;;;9.32;31.54;102142.09;5103329;28;20052;-61
2022/03/19 11:13:49;;;;;;;6.60;3.92;;;;;;;9.71;29.86;102155.91;5101945;28;20359;-60
2022/03/19 11:16:16;;;;;;;5.68;3.78;;;;;;;9.80;31.87;102146.59;5103060;28;20292;-60
2022/03/19 11:18:42;;;;;;;7.97;4.13;;;;;;;9.98;30.56;102153.03;5102962;28;20052;-61
2022/03/19 11:21:14;;;;;;;11.20;5.03;;;;;;;9.98;31.71;102155.63;5103076;28;20312;-60
2022/03/19 11:24:19;;;;;;;7.30;4.70;;;;;;;9.96;31.25;102158.19;5103232;28;20113;-62
2022/03/19 11:26:44;;;;;;;8.35;4.47;;;;;;;10.02;30.61;102152.25;5103130;28;20328;-61
2022/03/19 11:29:11;;;;;;;8.00;4.50;;;;;;;10.04;31.00;102153.16;5103136;28;20129;-60
2022/03/19 11:31:37;;;;;;;6.65;3.92;;;;;;;9.90;30.20;102157.16;5103042;28;20075;-61
2022/03/19 11:34:20;;;;;;;8.93;4.45;;;;;;;9.71;30.36;102146.41;5102782;28;20020;-59
2022/03/19 11:36:57;;;;;;;5.95;4.25;;;;;;;9.97;31.42;102144.38;5102790;28;20020;-61
2022/03/19 11:39:23;;;;;;;8.70;4.50;;;;;;;10.11;30.39;102147.25;5102639;28;20035;-61
2022/03/19 11:41:49;;;;;;;6.95;4.43;;;;;;;10.15;30.58;102151.66;5103005;28;20062;-61